createdAt,value
2022-09-15T00:01:25.436Z,14.92
2022-09-15T00:03:53.904Z,15.05
2022-09-15T00:06:23.216Z,14.87
2022-09-15T00:08:51.152Z,14.84
2022-09-15T00:11:24.024Z,14.89
2022-09-15T00:13:52.835Z,14.79
2022-09-15T00:16:23.490Z,14.79
2022-09-15T00:18:53.774Z,14.91
2022-09-15T00:21:25.925Z,14.76
2022-09-15T00:23:54.479Z,14.73
2022-09-15T00:26:24.531Z,14.82
2022-09-15T00:28:53.360Z,14.59
2022-09-15T00:31:23.521Z,14.84
2022-09-15T00:33:55.029Z,14.78
2022-09-15T00:36:26.012Z,14.72
2022-09-15T00:38:54.696Z,14.74
2022-09-15T00:41:24.707Z,14.63
2022-09-15T00:43:55.662Z,14.53
2022-09-15T00:46:26.484Z,14.47
2022-09-15T00:49:00.817Z,14.40
2022-09-15T00:51:42.223Z,14.42
2022-09-15T00:54:15.412Z,14.46
2022-09-15T00:56:45.126Z,14.28
2022-09-15T00:59:17.916Z,14.37
2022-09-15T01:01:48.057Z,14.40
2022-09-15T01:04:17.682Z,14.31
2022-09-15T01:06:53.446Z,14.22
2022-09-15T01:09:26.271Z,14.19
2022-09-15T01:11:54.210Z,14.20
2022-09-15T01:14:22.088Z,14.13
2022-09-15T01:16:58.054Z,14.13
2022-09-15T01:19:48.329Z,14.10
2022-09-15T01:22:33.578Z,14.09
2022-09-15T01:25:09.067Z,14.03
2022-09-15T01:28:18.150Z,14.02
2022-09-15T01:30:52.078Z,13.93
2022-09-15T01:33:30.310Z,13.93
2022-09-15T01:36:06.706Z,13.79
2022-09-15T01:38:43.530Z,13.83
2022-09-15T01:41:17.286Z,13.88
2022-09-15T01:43:54.680Z,13.84
2022-09-15T01:46:26.832Z,13.75
2022-09-15T01:48:57.233Z,13.75
2022-09-15T01:51:27.681Z,13.64
2022-09-15T01:53:57.358Z,13.76
2022-09-15T01:56:25.282Z,13.70
2022-09-15T01:58:53.327Z,13.64
2022-09-15T02:01:29.707Z,13.59
2022-09-15T02:04:03.032Z,13.65
2022-09-15T02:06:37.353Z,13.59
2022-09-15T02:09:13.441Z,13.51
2022-09-15T02:11:53.026Z,13.44
2022-09-15T02:14:28.385Z,13.37
2022-09-15T02:16:58.425Z,13.35
2022-09-15T02:19:32.188Z,13.34
2022-09-15T02:22:07.963Z,13.22
2022-09-15T02:24:40.978Z,13.17
2022-09-15T02:27:13.935Z,13.19
2022-09-15T02:29:46.102Z,13.18
2022-09-15T02:32:18.688Z,13.21
2022-09-15T02:34:51.515Z,13.25
2022-09-15T02:37:22.172Z,13.21
2022-09-15T02:39:54.544Z,13.30
2022-09-15T02:42:26.083Z,13.30
2022-09-15T02:44:54.059Z,13.26
2022-09-15T02:47:23.839Z,13.36
2022-09-15T02:49:51.900Z,13.28
2022-09-15T02:52:19.827Z,13.36
2022-09-15T02:54:48.042Z,13.30
2022-09-15T02:57:16.405Z,13.35
2022-09-15T03:00:01.717Z,13.42
2022-09-15T03:02:31.554Z,13.35
2022-09-15T03:04:59.483Z,13.34
2022-09-15T03:07:28.470Z,13.19
2022-09-15T03:09:56.455Z,13.24
2022-09-15T03:12:24.463Z,13.23
2022-09-15T03:14:52.518Z,13.17
2022-09-15T03:17:20.456Z,13.20
2022-09-15T03:19:50.493Z,13.09
2022-09-15T03:22:18.491Z,13.18
2022-09-15T03:24:46.494Z,13.22
2022-09-15T03:27:14.574Z,13.20
2022-09-15T03:29:42.525Z,13.23
2022-09-15T03:32:10.797Z,13.18
2022-09-15T03:34:38.780Z,13.13
2022-09-15T03:37:08.250Z,13.31
2022-09-15T03:39:36.244Z,13.39
2022-09-15T03:42:04.824Z,13.41
2022-09-15T03:44:32.846Z,13.43
2022-09-15T03:47:00.797Z,13.35
2022-09-15T03:49:29.078Z,13.38
2022-09-15T03:51:57.147Z,13.34
2022-09-15T03:54:26.903Z,13.34
2022-09-15T03:56:54.965Z,13.33
2022-09-15T03:59:22.896Z,13.33
2022-09-15T04:01:51.522Z,13.41
2022-09-15T04:04:19.486Z,13.34
2022-09-15T04:06:47.450Z,13.39
2022-09-15T04:09:15.385Z,13.26
2022-09-15T04:11:44.657Z,13.32
2022-09-15T04:14:12.594Z,13.34
2022-09-15T04:16:40.681Z,13.31
2022-09-15T04:19:08.718Z,13.27
2022-09-15T04:21:36.656Z,13.19
2022-09-15T04:24:05.975Z,13.23
2022-09-15T04:26:36.145Z,13.34
2022-09-15T04:29:07.153Z,13.23
2022-09-15T04:31:35.526Z,13.35
2022-09-15T04:34:03.592Z,13.32
2022-09-15T04:36:31.722Z,13.34
2022-09-15T04:38:59.998Z,13.24
2022-09-15T04:41:29.014Z,13.31
2022-09-15T04:43:56.969Z,13.23
2022-09-15T04:46:26.558Z,13.25
2022-09-15T04:48:54.539Z,13.24
2022-09-15T04:51:23.833Z,13.40
2022-09-15T04:53:52.026Z,13.46
2022-09-15T04:56:21.917Z,13.46
2022-09-15T04:58:52.323Z,13.49
2022-09-15T05:01:22.300Z,13.55
2022-09-15T05:03:52.392Z,13.55
2022-09-15T05:06:22.471Z,13.60
2022-09-15T05:08:52.920Z,13.67
2022-09-15T05:11:21.015Z,13.66
2022-09-15T05:13:49.661Z,13.65
2022-09-15T05:16:19.210Z,13.67
2022-09-15T05:18:48.530Z,13.64
2022-09-15T05:21:19.702Z,13.48
2022-09-15T05:23:48.370Z,13.61
2022-09-15T05:26:18.108Z,13.70
2022-09-15T05:28:46.400Z,13.69
2022-09-15T05:31:18.668Z,13.65
2022-09-15T05:33:47.121Z,13.68
2022-09-15T05:36:17.225Z,13.74
2022-09-15T05:38:46.592Z,13.85
2022-09-15T05:41:17.614Z,13.83
2022-09-15T05:43:46.391Z,13.70
2022-09-15T05:46:15.694Z,13.83
2022-09-15T05:48:44.023Z,14.04
2022-09-15T05:51:12.735Z,13.94
2022-09-15T05:53:40.880Z,13.96
2022-09-15T05:56:13.180Z,13.92
2022-09-15T05:58:42.624Z,13.97
2022-09-15T06:01:13.938Z,14.16
2022-09-15T06:03:41.971Z,13.97
2022-09-15T06:06:10.590Z,14.22
2022-09-15T06:08:44.070Z,14.36
2022-09-15T06:11:16.070Z,14.41
2022-09-15T06:13:44.651Z,14.26
2022-09-15T06:16:14.697Z,14.34
2022-09-15T06:18:43.047Z,14.35
2022-09-15T06:21:13.320Z,14.61
2022-09-15T06:23:41.671Z,14.54
2022-09-15T06:26:11.782Z,14.64
2022-09-15T06:28:43.179Z,14.62
2022-09-15T06:31:13.188Z,14.70
2022-09-15T06:33:44.192Z,14.79
2022-09-15T06:36:13.059Z,14.69
2022-09-15T06:38:41.883Z,14.68
2022-09-15T06:41:11.169Z,14.65
2022-09-15T06:43:41.288Z,14.68
2022-09-15T06:46:11.309Z,14.61
2022-09-15T06:48:40.618Z,14.83
2022-09-15T06:51:09.972Z,14.75
2022-09-15T06:53:39.190Z,14.94
2022-09-15T06:56:09.271Z,15.03
2022-09-15T06:58:38.763Z,15.05
2022-09-15T07:01:10.180Z,15.17
2022-09-15T07:03:39.624Z,15.16
2022-09-15T07:06:09.038Z,15.34
2022-09-15T07:08:37.041Z,15.35
2022-09-15T07:11:05.471Z,15.37
2022-09-15T07:13:33.465Z,15.22
2022-09-15T07:16:03.524Z,15.33
2022-09-15T07:18:33.522Z,15.18
2022-09-15T07:21:03.196Z,15.11
2022-09-15T07:23:31.565Z,15.35
2022-09-15T07:26:08.602Z,15.25
2022-09-15T07:28:37.472Z,15.45
2022-09-15T07:31:06.912Z,15.54
2022-09-15T07:33:36.747Z,15.83
2022-09-15T07:36:05.962Z,15.80
2022-09-15T07:38:34.251Z,15.86
2022-09-15T07:41:06.382Z,15.71
2022-09-15T07:43:34.828Z,15.64
2022-09-15T07:46:03.979Z,15.55
2022-09-15T07:48:32.078Z,15.78
2022-09-15T07:51:01.368Z,15.84
2022-09-15T07:53:30.099Z,15.75
2022-09-15T07:55:58.308Z,15.61
2022-09-15T07:58:26.806Z,15.56
2022-09-15T08:00:54.872Z,15.77
2022-09-15T08:03:22.847Z,15.61
2022-09-15T08:05:50.849Z,15.74
2022-09-15T08:08:20.118Z,15.75
2022-09-15T08:10:48.076Z,15.85
2022-09-15T08:13:16.039Z,15.72
2022-09-15T08:15:45.116Z,15.97
2022-09-15T08:18:13.285Z,16.20
2022-09-15T08:20:41.920Z,16.29
2022-09-15T08:23:11.075Z,16.26
2022-09-15T08:25:40.559Z,16.56
2022-09-15T08:28:08.476Z,16.50
2022-09-15T08:30:36.409Z,16.91
2022-09-15T08:33:04.591Z,16.89
2022-09-15T08:35:34.448Z,17.16
2022-09-15T08:38:02.478Z,17.22
2022-09-15T08:40:35.772Z,17.18
2022-09-15T08:43:22.613Z,17.03
2022-09-15T08:45:55.992Z,17.13
2022-09-15T08:48:28.475Z,17.08
2022-09-15T08:51:00.718Z,17.12
2022-09-15T08:53:32.366Z,17.09
2022-09-15T08:56:09.336Z,16.77
2022-09-15T08:58:39.500Z,16.76
2022-09-15T09:01:22.802Z,17.01
2022-09-15T09:04:17.534Z,17.05
2022-09-15T09:06:57.737Z,17.15
2022-09-15T09:09:37.328Z,17.30
2022-09-15T09:12:26.997Z,17.30
2022-09-15T09:15:07.041Z,17.50
2022-09-15T09:17:55.906Z,17.43
2022-09-15T09:20:38.472Z,17.41
2022-09-15T09:23:13.970Z,17.11
2022-09-15T09:25:44.616Z,17.59
2022-09-15T09:28:24.725Z,17.64
2022-09-15T09:30:54.554Z,18.60
2022-09-15T09:33:30.307Z,18.80
2022-09-15T09:36:02.435Z,19.27
2022-09-15T09:38:33.407Z,19.52
2022-09-15T09:41:02.695Z,19.26
2022-09-15T09:43:35.429Z,18.86
2022-09-15T09:46:16.491Z,19.14
2022-09-15T09:48:49.193Z,20.07
2022-09-15T09:51:35.522Z,19.33
2022-09-15T09:54:12.675Z,19.34
2022-09-15T09:56:41.012Z,19.64
2022-09-15T09:59:33.605Z,19.96
2022-09-15T10:02:21.634Z,20.72
2022-09-15T10:04:51.614Z,21.12
2022-09-15T10:07:22.838Z,21.17
2022-09-15T10:09:54.490Z,21.53
2022-09-15T10:12:26.687Z,20.81
2022-09-15T10:14:57.655Z,22.03
2022-09-15T10:17:38.059Z,21.43
2022-09-15T10:20:21.163Z,21.02
2022-09-15T10:22:49.355Z,19.75
2022-09-15T10:25:58.193Z,19.55
2022-09-15T10:28:28.084Z,19.80
2022-09-15T10:31:02.010Z,19.56
2022-09-15T10:33:34.882Z,19.66
2022-09-15T10:36:05.681Z,19.45
2022-09-15T10:38:41.271Z,19.26
2022-09-15T10:41:21.736Z,19.04
2022-09-15T10:44:05.985Z,18.74
2022-09-15T10:46:45.064Z,18.77
2022-09-15T10:49:27.515Z,18.70
2022-09-15T10:52:08.029Z,18.76
2022-09-15T10:54:56.858Z,18.95
2022-09-15T10:57:39.042Z,19.41
2022-09-15T11:00:12.464Z,20.06
2022-09-15T11:03:11.826Z,20.34
2022-09-15T11:06:03.165Z,21.43
2022-09-15T11:08:43.806Z,21.39
2022-09-15T11:11:19.538Z,21.09
2022-09-15T11:14:00.774Z,19.63
2022-09-15T11:16:46.212Z,19.61
2022-09-15T11:19:34.182Z,20.01
2022-09-15T11:22:08.340Z,20.73
2022-09-15T11:24:44.473Z,20.84
2022-09-15T11:27:20.878Z,21.52
2022-09-15T11:30:05.364Z,22.66
2022-09-15T11:32:39.926Z,24.50
2022-09-15T11:35:31.217Z,25.38
2022-09-15T11:38:13.119Z,24.44
2022-09-15T11:40:48.845Z,23.74
2022-09-15T11:43:22.696Z,21.96
2022-09-15T11:45:56.116Z,21.14
2022-09-15T11:48:32.019Z,20.89
2022-09-15T11:51:03.159Z,20.66
2022-09-15T11:53:40.574Z,20.00
2022-09-15T11:56:19.505Z,19.90
2022-09-15T11:59:01.502Z,19.82
2022-09-15T12:01:33.925Z,19.71
2022-09-15T12:04:06.240Z,19.28
2022-09-15T12:06:43.277Z,18.83
2022-09-15T12:09:17.182Z,18.64
2022-09-15T12:11:48.701Z,18.84
2022-09-15T12:14:20.633Z,18.64
2022-09-15T12:16:49.097Z,18.33
2022-09-15T12:19:23.150Z,17.97
2022-09-15T12:21:58.831Z,17.85
2022-09-15T12:24:39.338Z,17.98
2022-09-15T12:27:16.224Z,18.04
2022-09-15T12:29:50.084Z,17.97
2022-09-15T12:32:20.867Z,18.43
2022-09-15T12:35:01.234Z,18.08
2022-09-15T12:37:42.752Z,18.23
2022-09-15T12:40:34.468Z,18.22
2022-09-15T12:43:03.762Z,18.35
2022-09-15T12:45:35.859Z,18.31
2022-09-15T12:48:07.616Z,18.38
2022-09-15T12:50:38.794Z,18.46
2022-09-15T12:53:15.823Z,18.93
2022-09-15T12:55:51.450Z,19.01
2022-09-15T12:58:22.535Z,19.49
2022-09-15T13:01:16.696Z,19.97
2022-09-15T13:04:25.255Z,20.14
2022-09-15T13:07:29.646Z,19.84
2022-09-15T13:09:59.651Z,19.77
2022-09-15T13:12:36.251Z,19.52
2022-09-15T13:15:08.646Z,19.45
2022-09-15T13:17:37.561Z,19.32
2022-09-15T13:20:15.608Z,19.22
2022-09-15T13:22:48.202Z,18.98
2022-09-15T13:25:19.259Z,18.60
2022-09-15T13:27:51.329Z,18.77
2022-09-15T13:30:32.458Z,18.85
2022-09-15T13:33:08.928Z,19.07
2022-09-15T13:35:53.263Z,18.89
2022-09-15T13:38:54.354Z,19.39
2022-09-15T13:41:48.929Z,19.16
2022-09-15T13:44:50.731Z,19.59
2022-09-15T13:47:30.956Z,19.34
2022-09-15T13:50:11.737Z,19.49
2022-09-15T13:53:24.183Z,19.28
2022-09-15T13:55:54.602Z,19.48
2022-09-15T14:01:15.317Z,19.49
2022-09-15T14:03:49.992Z,19.41
2022-09-15T14:06:20.688Z,19.31
2022-09-15T14:08:52.860Z,20.07
2022-09-15T14:11:26.906Z,20.14
2022-09-15T14:13:56.523Z,20.35
2022-09-15T14:16:34.699Z,21.05
2022-09-15T14:19:25.174Z,21.04
2022-09-15T14:21:58.269Z,20.96
2022-09-15T14:24:28.925Z,21.47
2022-09-15T14:27:00.684Z,21.53
2022-09-15T14:29:28.955Z,20.90
2022-09-15T14:32:01.667Z,20.87
2022-09-15T14:34:35.814Z,20.49
2022-09-15T14:37:06.722Z,20.52
2022-09-15T14:39:37.632Z,20.31
2022-09-15T14:42:11.872Z,19.81
2022-09-15T14:47:31.156Z,19.67
2022-09-15T14:50:15.413Z,19.63
2022-09-15T14:52:48.168Z,19.51
2022-09-15T14:55:20.393Z,19.31
2022-09-15T14:57:55.421Z,19.46
2022-09-15T15:00:26.280Z,19.42
2022-09-15T15:03:02.420Z,19.49
2022-09-15T15:05:36.520Z,19.66
2022-09-15T15:08:09.424Z,19.42
2022-09-15T15:10:38.266Z,19.62
2022-09-15T15:13:14.053Z,19.59
2022-09-15T15:15:42.573Z,19.50
2022-09-15T15:18:31.862Z,19.40
2022-09-15T15:21:01.518Z,19.41
2022-09-15T15:23:29.582Z,19.27
2022-09-15T15:26:25.575Z,19.02
2022-09-15T15:28:53.573Z,18.95
2022-09-15T15:31:23.615Z,18.81
2022-09-15T15:33:55.828Z,18.73
2022-09-15T15:36:26.986Z,18.38
2022-09-15T15:38:57.483Z,18.26
2022-09-15T15:41:27.821Z,18.07
2022-09-15T15:43:58.490Z,18.12
2022-09-15T15:46:47.399Z,18.26
2022-09-15T15:49:16.178Z,18.34
2022-09-15T15:51:45.741Z,18.38
2022-09-15T15:54:14.483Z,18.41
2022-09-15T15:56:42.775Z,18.63
2022-09-15T15:59:13.595Z,19.06
2022-09-15T16:01:42.118Z,19.00
2022-09-15T16:04:13.211Z,19.18
2022-09-15T16:06:42.081Z,19.25
2022-09-15T16:09:13.179Z,19.42
2022-09-15T16:11:42.206Z,19.13
2022-09-15T16:14:12.556Z,19.34
2022-09-15T16:16:40.669Z,19.35
2022-09-15T16:19:09.681Z,19.50
2022-09-15T16:21:40.660Z,19.11
2022-09-15T16:24:15.945Z,19.04
2022-09-15T16:26:44.527Z,18.89
2022-09-15T16:29:12.879Z,18.91
2022-09-15T16:31:42.914Z,18.72
2022-09-15T16:34:17.564Z,18.52
2022-09-15T16:36:45.536Z,18.44
2022-09-15T16:39:14.797Z,18.05
2022-09-15T16:41:42.738Z,17.88
2022-09-15T16:44:18.664Z,17.92
2022-09-15T16:46:47.080Z,17.93
2022-09-15T16:49:15.153Z,17.61
2022-09-15T16:51:43.121Z,17.57
2022-09-15T16:54:16.345Z,17.50
2022-09-15T16:56:45.448Z,17.57
2022-09-15T16:59:13.871Z,17.36
2022-09-15T17:01:42.056Z,17.58
2022-09-15T17:04:19.056Z,17.55
2022-09-15T17:06:47.406Z,17.42
2022-09-15T17:09:16.667Z,17.47
2022-09-15T17:11:44.750Z,17.34
2022-09-15T17:14:15.414Z,17.50
2022-09-15T17:16:52.929Z,17.45
2022-09-15T17:19:21.858Z,17.40
2022-09-15T17:21:52.684Z,17.33
2022-09-15T17:24:22.063Z,17.34
2022-09-15T17:26:50.003Z,17.38
2022-09-15T17:29:17.969Z,17.37
2022-09-15T17:31:45.886Z,17.22
2022-09-15T17:34:14.806Z,17.25
2022-09-15T17:36:42.758Z,17.18
2022-09-15T17:39:10.679Z,17.03
2022-09-15T17:41:40.003Z,17.06
2022-09-15T17:44:11.517Z,16.85
2022-09-15T17:46:39.467Z,16.80
2022-09-15T17:49:07.436Z,16.91
2022-09-15T17:51:35.601Z,16.92
2022-09-15T17:54:03.620Z,16.81
2022-09-15T17:56:31.550Z,16.60
2022-09-15T17:59:00.887Z,16.51
2022-09-15T18:01:28.987Z,16.29
2022-09-15T18:03:56.950Z,16.06
2022-09-15T18:06:24.894Z,15.90
2022-09-15T18:08:53.307Z,16.11
2022-09-15T18:11:21.304Z,15.90
2022-09-15T18:13:49.196Z,16.07
2022-09-15T18:16:18.551Z,15.98
2022-09-15T18:18:47.226Z,15.96
2022-09-15T18:21:25.100Z,15.68
2022-09-15T18:23:53.052Z,15.49
2022-09-15T18:26:23.889Z,15.47
2022-09-15T18:28:54.685Z,15.34
2022-09-15T18:31:24.542Z,15.34
2022-09-15T18:33:52.534Z,15.46
2022-09-15T18:36:20.632Z,15.40
2022-09-15T18:38:48.622Z,15.29
2022-09-15T18:41:16.622Z,15.18
2022-09-15T18:43:48.831Z,15.30
2022-09-15T18:46:17.246Z,15.26
2022-09-15T18:48:46.838Z,15.20
2022-09-15T18:51:23.890Z,15.25
2022-09-15T18:53:54.497Z,15.26
2022-09-15T18:56:22.665Z,15.31
2022-09-15T18:58:53.710Z,15.23
2022-09-15T19:01:22.126Z,15.14
2022-09-15T19:03:51.603Z,15.10
2022-09-15T19:06:19.677Z,15.02
2022-09-15T19:08:47.669Z,14.93
2022-09-15T19:11:16.010Z,14.95
2022-09-15T19:13:44.068Z,15.03
2022-09-15T19:16:12.496Z,15.02
2022-09-15T19:18:40.565Z,15.05
2022-09-15T19:21:11.716Z,15.01
2022-09-15T19:23:40.213Z,15.16
2022-09-15T19:26:13.019Z,14.91
2022-09-15T19:28:41.184Z,14.97
2022-09-15T19:31:09.485Z,14.94
2022-09-15T19:33:37.894Z,15.01
2022-09-15T19:36:27.526Z,14.79
2022-09-15T19:38:57.477Z,14.50
2022-09-15T19:41:25.901Z,14.67
2022-09-15T19:43:54.508Z,14.60
2022-09-15T19:46:24.613Z,14.64
2022-09-15T19:48:53.327Z,14.71
2022-09-15T19:51:22.045Z,14.69
2022-09-15T19:53:50.088Z,14.52
2022-09-15T19:56:22.510Z,14.35
2022-09-15T19:58:50.842Z,14.45
2022-09-15T20:01:19.164Z,14.32
2022-09-15T20:03:47.167Z,14.49
2022-09-15T20:06:15.235Z,14.51
2022-09-15T20:08:45.530Z,14.57
2022-09-15T20:11:14.360Z,14.63
2022-09-15T20:13:44.451Z,14.68
2022-09-15T20:16:16.470Z,14.62
2022-09-15T20:18:46.593Z,14.53
2022-09-15T20:21:26.846Z,14.64
2022-09-15T20:24:04.268Z,14.42
2022-09-15T20:26:32.523Z,14.31
2022-09-15T20:29:02.858Z,14.22
2022-09-15T20:31:32.927Z,14.29
2022-09-15T20:34:02.167Z,14.26
2022-09-15T20:36:33.313Z,14.23
2022-09-15T20:39:03.224Z,14.19
2022-09-15T20:41:32.829Z,14.24
2022-09-15T20:44:02.412Z,14.05
2022-09-15T20:46:31.318Z,14.10
2022-09-15T20:48:59.426Z,14.13
2022-09-15T20:51:30.546Z,14.04
2022-09-15T20:54:00.143Z,13.93
2022-09-15T20:56:31.447Z,14.03
2022-09-15T20:59:02.066Z,14.11
2022-09-15T21:01:34.253Z,14.01
2022-09-15T21:04:02.723Z,14.16
2022-09-15T21:06:31.533Z,14.20
2022-09-15T21:09:00.288Z,14.23
2022-09-15T21:11:30.074Z,14.18
2022-09-15T21:13:59.095Z,14.18
2022-09-15T21:16:30.097Z,14.09
2022-09-15T21:18:59.173Z,14.12
2022-09-15T21:21:29.878Z,14.07
2022-09-15T21:24:01.210Z,13.94
2022-09-15T21:26:30.836Z,13.96
2022-09-15T21:28:58.948Z,14.04
2022-09-15T21:31:30.028Z,14.00
2022-09-15T21:33:58.849Z,13.96
2022-09-15T21:36:29.682Z,13.83
2022-09-15T21:38:59.338Z,13.82
2022-09-15T21:41:29.783Z,13.72
2022-09-15T21:43:59.241Z,13.82
2022-09-15T21:46:30.637Z,13.72
2022-09-15T21:48:59.917Z,13.71
2022-09-15T21:51:29.447Z,13.81
2022-09-15T21:53:59.643Z,13.78
2022-09-15T21:56:29.078Z,13.74
2022-09-15T21:58:57.202Z,13.61
2022-09-15T22:01:27.461Z,13.63
2022-09-15T22:03:58.599Z,13.55
2022-09-15T22:06:31.411Z,13.69
2022-09-15T22:09:00.462Z,13.64
2022-09-15T22:11:28.688Z,13.66
2022-09-15T22:13:56.733Z,13.61
2022-09-15T22:16:26.160Z,13.41
2022-09-15T22:18:54.489Z,13.42
2022-09-15T22:21:26.002Z,13.30
2022-09-15T22:23:55.951Z,13.23
2022-09-15T22:26:25.302Z,13.23
2022-09-15T22:28:53.590Z,13.35
2022-09-15T22:31:23.340Z,13.10
2022-09-15T22:33:51.732Z,13.06
2022-09-15T22:36:24.068Z,13.08
2022-09-15T22:39:03.407Z,13.11
2022-09-15T22:41:32.571Z,13.22
2022-09-15T22:44:00.477Z,13.10
2022-09-15T22:46:28.421Z,13.12
2022-09-15T22:48:56.452Z,13.00
2022-09-15T22:51:24.492Z,13.13
2022-09-15T22:53:54.604Z,13.03
2022-09-15T22:56:25.618Z,13.02
2022-09-15T22:58:53.714Z,12.97
2022-09-15T23:01:23.684Z,12.91
2022-09-15T23:03:52.487Z,12.72
2022-09-15T23:06:21.292Z,12.76
2022-09-15T23:08:52.104Z,12.80
2022-09-15T23:11:20.150Z,12.72
2022-09-15T23:13:49.687Z,12.71
2022-09-15T23:16:18.166Z,12.68
2022-09-15T23:18:46.772Z,12.73
2022-09-15T23:21:15.163Z,12.61
2022-09-15T23:23:49.157Z,12.75
2022-09-15T23:26:20.466Z,12.71
2022-09-15T23:28:50.139Z,12.66
2022-09-15T23:31:18.288Z,12.45
2022-09-15T23:33:46.647Z,12.45
2022-09-15T23:36:16.456Z,12.55
2022-09-15T23:38:45.779Z,12.50
2022-09-15T23:41:14.400Z,12.39
2022-09-15T23:43:42.549Z,12.50
2022-09-15T23:46:11.929Z,12.36
2022-09-15T23:48:40.062Z,12.44
2022-09-15T23:51:08.092Z,12.42
2022-09-15T23:53:36.065Z,12.29
2022-09-15T23:56:04.200Z,12.36
2022-09-15T23:58:32.115Z,12.29
